Boone, CO

8:53 PM MDT on October 20, 2014 (GMT -0600)
Ellicott | Change Station
CLOSE
Current Station
Airport
Location: Ellicott,
Elevation: 6037 ft
Nearby Weather Stations

Elev 6037 ft 38.76 °N, 104.31 °W | Updated 57 minutes ago

Clear
Clear
52 °F
Feels Like 52 °F
N
10
Wind Variable Wind from SSE

Today
High -- | Low -- °F
--% Chance of Precip.
Yesterday
High -- | Low -- °F
Precip. -- in
7:10 AM 6:11 PM
Waning Crescent, 8% visible
Pressure 30.12 in
Visibility 10.0 miles
Clouds Clear
Dew Point 38 °F
Humidity 59%
Rainfall 0.00 in
Snow Depth Not available.
UV 0 out of 12
Pollen 1.80 out of 12
Air Quality Not available.
Flu Activity Not available.
METAR KABH 210156Z AUTO 16009KT 10SM CLR 11/03 A3018 RMK AO2 SLP200 T01110033 $

More Conditions Fewer Conditions

Pressure 30.12 in
Visibility 10.0 miles
Clouds Clear
Dew Point 38 °F
Humidity 59%
Rainfall 0.00 in
Snow Depth Not available.
UV 0 out of 12
Pollen 1.80 out of 12
Air Quality Not available.
Flu Activity Not available.
METAR KABH 210156Z AUTO 16009KT 10SM CLR 11/03 A3018 RMK AO2 SLP200 T01110033 $

More Conditions Fewer Conditions

10-Day Weather Forecast

Almanac

Astronomy

Oct. 20, 2014 Rise Set
Actual Time 7:10 AM MDT 6:11 PM MDT
Civil Twilight 6:43 AM MDT 6:38 PM MDT
Nautical Twilight 6:13 AM MDT 7:09 PM MDT
Astronomical Twilight 5:42 AM MDT 7:40 PM MDT
Moon 4:03 AM MDT (10/20) 4:33 PM MDT (10/20)
Length of Visible Light 11h 54m
Length of Day
11h 01m
Tomorrow will be 2m 20s shorter.
Waning Crescent, 8% of the Moon is Illuminated
Today
Waning Crescent
Oct 23
New
Oct 30
First Quarter
Nov 6
Full
Nov 14
Last Quarter

Today's Extremes

State Highs State Lows

Community

WunderPhotos

Upload Photos

1,763,580 photos uploaded!

Nearby

Snow Depth

Station Depth Elevation
Glen Cove 2 in 11460 ft
Medano Pass 0 in 9620 ft
South Colony 1 in 10800 ft
Ute Creek 0 in 10650 ft
Apishapa 0 in 10000 ft

Earthquake Activity

City Distance Mag. Time & Date
Trinidad, Colorado 81 miles 2.5 10:01 PM MDT
2014-10-19
Trinidad, Colorado 95 miles 3.8 11:01 AM MDT
2014-10-17
Minimum magnitude displayed is 2.5.

Coastal Water Temperatures

Place Temperature
No Stations Reporting

Nearby Weather Stations